Time;durP1;ratioP1;P1;durP2;ratioP2;P2;SDS_P1;SDS_P2;PMS_P1;PMS_P2;Temp;Humidity;BMP_temperature;BMP_pressure;BME280_temperature;BME280_humidity;BME280_pressure;Samples;Min_cycle;Max_cycle;Signal;HPM_P1;HPM_P2
2021/09/12 00:00:05;;;;;;;12.27;9.02;;;16.20;71.00;;;;;;5016433;28;20019;-80
2021/09/12 00:02:31;;;;;;;12.38;9.30;;;16.30;71.30;;;;;;5012954;28;20038;-81
2021/09/12 00:04:56;;;;;;;13.18;9.27;;;16.20;71.30;;;;;;5012511;28;20042;-82
2021/09/12 00:07:22;;;;;;;12.52;9.48;;;16.30;71.30;;;;;;4999495;28;20066;-82
2021/09/12 00:09:48;;;;;;;12.20;9.05;;;16.30;71.30;;;;;;5013157;28;20026;-83
2021/09/12 00:12:14;;;;;;;13.38;9.52;;;16.30;70.80;;;;;;4981206;28;20038;-82
2021/09/12 00:14:39;;;;;;;12.77;9.45;;;16.30;71.30;;;;;;4980601;28;20092;-83
2021/09/12 00:17:06;;;;;;;13.07;8.80;;;16.30;71.50;;;;;;4998231;28;20477;-84
2021/09/12 00:19:32;;;;;;;11.85;9.40;;;16.30;72.20;;;;;;4997191;28;20034;-84
2021/09/12 00:21:57;;;;;;;11.25;8.38;;;16.30;71.50;;;;;;4979486;28;20042;-85
2021/09/12 00:24:23;;;;;;;11.23;8.85;;;16.30;71.30;;;;;;4979483;28;20121;-84
2021/09/12 00:26:49;;;;;;;12.25;8.68;;;16.30;71.60;;;;;;4995477;28;20042;-83
2021/09/12 00:29:16;;;;;;;11.73;8.77;;;16.30;71.80;;;;;;4978400;28;20038;-83
2021/09/12 00:31:42;;;;;;;14.00;9.15;;;16.30;72.00;;;;;;4996257;28;20034;-83
2021/09/12 00:34:08;;;;;;;14.95;9.60;;;16.30;72.00;;;;;;4978576;28;20077;-83
2021/09/12 00:36:34;;;;;;;12.38;9.23;;;16.30;72.30;;;;;;4995973;28;20074;-87
2021/09/12 00:38:59;;;;;;;12.73;9.35;;;16.30;72.10;;;;;;4977757;28;20038;-82
2021/09/12 00:41:25;;;;;;;12.57;8.75;;;16.30;72.20;;;;;;4995279;28;20042;-83
2021/09/12 00:43:51;;;;;;;12.82;9.30;;;16.30;72.40;;;;;;4995415;28;20031;-84
2021/09/12 00:46:17;;;;;;;12.73;8.80;;;16.20;72.20;;;;;;4978495;28;20045;-83
2021/09/12 00:48:44;;;;;;;14.10;9.60;;;16.20;72.30;;;;;;4978267;28;20449;-83
2021/09/12 00:51:09;;;;;;;18.25;9.30;;;16.20;73.00;;;;;;4977548;28;20130;-83
2021/09/12 00:53:36;;;;;;;12.48;9.20;;;16.20;72.50;;;;;;4994403;28;20070;-84
2021/09/12 00:56:04;;;;;;;12.52;9.45;;;16.10;72.70;;;;;;4994636;28;20046;-84
2021/09/12 00:58:34;;;;;;;11.93;9.27;;;16.10;72.70;;;;;;4977870;28;20042;-83
2021/09/12 01:01:00;;;;;;;14.38;10.43;;;16.10;73.30;;;;;;4994062;28;20030;-83
2021/09/12 01:03:26;;;;;;;12.15;9.68;;;16.10;73.50;;;;;;4977999;28;20061;-83
2021/09/12 01:05:52;;;;;;;14.27;9.98;;;16.10;73.80;;;;;;4978400;28;20035;-83
2021/09/12 01:08:18;;;;;;;12.55;9.55;;;16.10;73.70;;;;;;4978090;28;20038;-83
2021/09/12 01:10:43;;;;;;;11.75;9.00;;;16.00;73.60;;;;;;4977905;28;20034;-83
2021/09/12 01:13:10;;;;;;;11.07;8.38;;;16.00;73.60;;;;;;4977807;28;20121;-82
2021/09/12 01:15:36;;;;;;;12.45;8.85;;;16.00;73.40;;;;;;4995131;28;20049;-83
2021/09/12 01:18:03;;;;;;;12.45;9.13;;;16.00;73.50;;;;;;4995265;28;20046;-82
2021/09/12 01:20:29;;;;;;;12.70;9.35;;;15.90;73.70;;;;;;4995570;28;20034;-82
2021/09/12 01:22:55;;;;;;;12.07;9.13;;;15.80;73.80;;;;;;4995257;28;20126;-83
2021/09/12 01:25:20;;;;;;;12.50;9.02;;;15.80;74.00;;;;;;4977473;28;20038;-83
2021/09/12 01:27:46;;;;;;;12.88;9.90;;;15.80;74.20;;;;;;4995075;28;20085;-83
2021/09/12 01:30:16;;;;;;;14.35;10.15;;;15.80;74.80;;;;;;4961301;28;20492;-82
2021/09/12 01:32:43;;;;;;;13.80;9.70;;;15.80;74.90;;;;;;4978519;28;20038;-83
2021/09/12 01:35:10;;;;;;;15.98;10.88;;;15.80;74.90;;;;;;4994360;28;20380;-83
2021/09/12 01:37:35;;;;;;;13.40;9.55;;;15.80;75.10;;;;;;4976997;28;20085;-82
2021/09/12 01:40:02;;;;;;;12.57;8.75;;;15.80;74.70;;;;;;4994704;28;20138;-83
2021/09/12 01:42:28;;;;;;;11.20;8.90;;;15.70;74.50;;;;;;4994380;28;20038;-83
2021/09/12 01:44:53;;;;;;;13.23;9.43;;;15.70;74.40;;;;;;4977080;28;20393;-84
2021/09/12 01:47:19;;;;;;;14.25;10.30;;;15.70;75.00;;;;;;4976902;28;20129;-83
2021/09/12 01:49:46;;;;;;;12.70;9.68;;;15.70;75.50;;;;;;4994521;28;20498;-83
2021/09/12 01:52:13;;;;;;;15.57;11.18;;;15.60;75.70;;;;;;4977377;28;20039;-83
2021/09/12 01:54:38;;;;;;;14.10;10.93;;;15.60;75.90;;;;;;4994436;28;20085;-83
2021/09/12 01:57:05;;;;;;;15.68;11.20;;;15.60;76.10;;;;;;4976942;28;20046;-83
2021/09/12 01:59:31;;;;;;;15.05;11.18;;;15.60;76.10;;;;;;4993083;28;20045;-83
2021/09/12 02:01:57;;;;;;;14.10;10.30;;;15.60;76.20;;;;;;4998833;28;20109;-83
2021/09/12 02:04:23;;;;;;;16.20;11.05;;;15.60;75.90;;;;;;4999820;28;20034;-84
2021/09/12 02:06:49;;;;;;;17.95;11.27;;;15.50;76.20;;;;;;4983701;28;20448;-83
2021/09/12 02:09:15;;;;;;;14.57;10.10;;;15.50;76.50;;;;;;5000285;28;20053;-83
2021/09/12 02:11:40;;;;;;;14.98;10.82;;;15.40;76.40;;;;;;4983460;28;20130;-83
2021/09/12 02:14:06;;;;;;;14.70;10.80;;;15.40;76.50;;;;;;5000610;28;20081;-84
2021/09/12 02:16:32;;;;;;;15.70;10.63;;;15.30;76.50;;;;;;4999572;28;20092;-83
2021/09/12 02:19:00;;;;;;;16.83;10.18;;;15.30;76.70;;;;;;5000454;28;20036;-85
2021/09/12 02:21:26;;;;;;;14.40;10.32;;;15.30;76.80;;;;;;5000932;28;20042;-82
2021/09/12 02:23:52;;;;;;;14.52;10.80;;;15.20;76.50;;;;;;4983190;28;20030;-83
2021/09/12 02:26:17;;;;;;;15.15;11.40;;;15.20;77.00;;;;;;5001256;28;20484;-83
2021/09/12 02:28:43;;;;;;;14.05;10.88;;;15.10;77.50;;;;;;4999859;28;20112;-82
2021/09/12 02:31:12;;;;;;;14.98;11.20;;;15.10;77.50;;;;;;5001720;28;20037;-83
2021/09/12 02:33:37;;;;;;;17.00;10.90;;;15.00;77.90;;;;;;4999917;28;20042;-81
2021/09/12 02:36:03;;;;;;;19.70;12.20;;;15.00;77.80;;;;;;4974157;28;20047;-80
2021/09/12 02:38:31;;;;;;;14.68;10.73;;;15.00;78.30;;;;;;4963944;28;20043;-81
2021/09/12 02:40:59;;;;;;;16.05;12.02;;;15.00;78.00;;;;;;4964467;28;20041;-80
2021/09/12 02:43:29;;;;;;;15.65;11.68;;;14.90;78.30;;;;;;4980092;28;20042;-81
2021/09/12 02:45:55;;;;;;;15.60;11.48;;;14.90;78.30;;;;;;4964168;28;20397;-82
2021/09/12 02:48:21;;;;;;;14.82;11.13;;;14.80;78.60;;;;;;4981336;28;20131;-82
2021/09/12 02:50:47;;;;;;;16.67;12.57;;;14.80;78.80;;;;;;4981241;28;20058;-82
2021/09/12 02:53:13;;;;;;;17.63;12.68;;;14.80;79.10;;;;;;4980722;28;20062;-82
2021/09/12 02:55:39;;;;;;;16.38;12.07;;;14.80;79.20;;;;;;4981040;28;20054;-83
2021/09/12 02:58:05;;;;;;;17.10;11.88;;;14.80;79.10;;;;;;4963810;28;20481;-82
2021/09/12 03:00:31;;;;;;;15.85;11.80;;;14.80;78.90;;;;;;4981142;28;20035;-81
2021/09/12 03:02:57;;;;;;;18.27;12.07;;;14.70;78.90;;;;;;4979655;28;20042;-82
2021/09/12 03:05:26;;;;;;;17.55;12.63;;;14.70;79.40;;;;;;4963626;28;20082;-82
2021/09/12 03:07:52;;;;;;;14.95;11.57;;;14.70;80.10;;;;;;4963569;28;20042;-82
2021/09/12 03:10:17;;;;;;;15.60;11.32;;;14.70;79.50;;;;;;4963790;28;20039;-82
2021/09/12 03:12:43;;;;;;;14.90;11.10;;;14.70;79.30;;;;;;4961332;28;20035;-82
2021/09/12 03:15:10;;;;;;;15.68;11.63;;;14.60;79.50;;;;;;4978414;28;20039;-82
2021/09/12 03:17:36;;;;;;;16.55;11.23;;;14.60;79.80;;;;;;4960218;28;20043;-82
2021/09/12 03:20:04;;;;;;;15.20;11.27;;;14.60;79.70;;;;;;4977758;28;20174;-82
2021/09/12 03:22:30;;;;;;;15.55;11.40;;;14.60;79.60;;;;;;4976348;28;20039;-83
2021/09/12 03:24:56;;;;;;;18.80;13.73;;;14.60;80.20;;;;;;4977768;28;20030;-83
2021/09/12 03:27:22;;;;;;;18.08;12.68;;;14.60;80.60;;;;;;4978505;28;20066;-82
2021/09/12 03:29:47;;;;;;;19.55;13.85;;;14.60;81.00;;;;;;4976563;28;20043;-82
2021/09/12 03:32:13;;;;;;;19.42;13.23;;;14.60;81.40;;;;;;4977493;28;20102;-84
2021/09/12 03:34:39;;;;;;;18.45;13.48;;;14.60;81.50;;;;;;4959710;28;20030;-82
2021/09/12 03:37:05;;;;;;;19.75;13.77;;;14.60;81.50;;;;;;4959962;28;20055;-83
2021/09/12 03:39:31;;;;;;;19.52;14.35;;;14.60;81.80;;;;;;4978358;28;20048;-84
2021/09/12 03:41:56;;;;;;;19.48;13.27;;;14.60;82.00;;;;;;4961209;28;20035;-84
2021/09/12 03:44:23;;;;;;;21.27;13.60;;;14.60;81.40;;;;;;4960298;28;20366;-83
2021/09/12 03:46:48;;;;;;;16.25;12.35;;;14.60;81.60;;;;;;4977106;28;20057;-82
2021/09/12 03:49:14;;;;;;;17.85;12.82;;;14.70;81.00;;;;;;4959853;28;20480;-83
2021/09/12 03:51:40;;;;;;;17.95;12.38;;;14.60;81.30;;;;;;4959927;28;20508;-83
2021/09/12 03:54:06;;;;;;;18.17;13.48;;;14.60;81.40;;;;;;4976538;28;20042;-84
2021/09/12 03:56:34;;;;;;;17.75;13.27;;;14.70;81.50;;;;;;4959373;28;20050;-83
2021/09/12 03:58:59;;;;;;;24.77;14.27;;;14.70;81.60;;;;;;4976517;28;20047;-83
2021/09/12 04:01:25;;;;;;;20.95;14.45;;;14.70;81.80;;;;;;4976965;28;20500;-83
2021/09/12 04:03:51;;;;;;;19.13;13.43;;;14.70;82.00;;;;;;4975538;28;20122;-83
2021/09/12 04:06:16;;;;;;;21.58;14.43;;;14.70;81.60;;;;;;4959611;28;20042;-82
2021/09/12 04:08:43;;;;;;;20.23;13.10;;;14.70;82.10;;;;;;4976145;28;20429;-83
2021/09/12 04:11:09;;;;;;;18.23;12.32;;;14.80;81.90;;;;;;4976818;28;20030;-83
2021/09/12 04:13:35;;;;;;;18.35;13.05;;;14.80;81.70;;;;;;4959522;28;20039;-83
2021/09/12 04:16:00;;;;;;;17.92;12.48;;;14.80;81.70;;;;;;4959202;28;20144;-84
2021/09/12 04:18:26;;;;;;;20.48;14.63;;;14.90;81.50;;;;;;4976465;28;20122;-83
2021/09/12 04:20:52;;;;;;;17.38;12.85;;;14.90;82.00;;;;;;4976881;28;20041;-84
2021/09/12 04:23:17;;;;;;;17.70;12.50;;;15.00;81.80;;;;;;4976464;28;20473;-83
2021/09/12 04:25:43;;;;;;;21.35;14.00;;;15.00;81.30;;;;;;4959368;28;20050;-85
2021/09/12 04:28:09;;;;;;;23.40;14.98;;;15.00;81.60;;;;;;4976043;28;20121;-82
2021/09/12 04:30:34;;;;;;;22.08;14.82;;;15.10;81.70;;;;;;4959149;28;20038;-85
2021/09/12 04:33:02;;;;;;;20.85;14.48;;;15.20;81.50;;;;;;4975842;28;20034;-83
2021/09/12 04:35:27;;;;;;;23.75;14.85;;;15.30;81.50;;;;;;4959094;28;20054;-85
2021/09/12 04:37:53;;;;;;;22.20;14.65;;;15.30;81.30;;;;;;4975067;28;20113;-83
2021/09/12 04:40:19;;;;;;;20.77;14.60;;;15.50;81.10;;;;;;4958822;28;20039;-83
2021/09/12 04:42:44;;;;;;;22.15;15.20;;;15.50;81.00;;;;;;4958355;28;20386;-83
2021/09/12 04:45:10;;;;;;;20.60;13.63;;;15.60;80.80;;;;;;4975779;28;20039;-83
2021/09/12 04:47:36;;;;;;;18.92;13.52;;;15.70;80.40;;;;;;4958504;28;20046;-83
2021/09/12 04:50:02;;;;;;;20.70;14.07;;;15.80;80.20;;;;;;4975846;28;20063;-83
2021/09/12 04:52:28;;;;;;;20.13;13.93;;;15.90;80.20;;;;;;4958172;28;20073;-83
2021/09/12 04:54:54;;;;;;;20.30;14.27;;;16.00;80.00;;;;;;4958520;28;20062;-83
2021/09/12 04:57:20;;;;;;;17.25;12.27;;;16.10;79.80;;;;;;4958230;28;20465;-83
2021/09/12 04:59:45;;;;;;;18.40;12.95;;;16.20;79.30;;;;;;4975741;28;20031;-84
2021/09/12 05:02:11;;;;;;;17.50;12.82;;;16.20;79.40;;;;;;4957972;28;20039;-84
2021/09/12 05:04:37;;;;;;;16.30;12.38;;;16.30;79.10;;;;;;4958263;28;20075;-84
2021/09/12 05:07:07;;;;;;;15.98;11.45;;;16.40;78.80;;;;;;4957887;28;20034;-82
2021/09/12 05:09:33;;;;;;;16.98;12.02;;;16.40;78.90;;;;;;4959048;28;20047;-84
2021/09/12 05:11:58;;;;;;;17.45;11.70;;;16.50;78.80;;;;;;4957714;28;20033;-83
2021/09/12 05:14:25;;;;;;;14.73;11.23;;;16.60;78.60;;;;;;4975088;28;20042;-83
2021/09/12 05:16:51;;;;;;;14.52;10.40;;;16.70;78.20;;;;;;4974494;28;20508;-83
2021/09/12 05:19:18;;;;;;;15.20;11.13;;;16.70;78.10;;;;;;4958112;28;20035;-84
2021/09/12 05:21:44;;;;;;;14.00;10.40;;;16.80;78.20;;;;;;4976650;28;20038;-90
2021/09/12 05:24:09;;;;;;;13.43;10.40;;;16.90;78.00;;;;;;4958651;28;20038;-86
2021/09/12 05:26:35;;;;;;;14.55;10.68;;;17.00;78.00;;;;;;4959066;28;20371;-85
2021/09/12 05:29:02;;;;;;;16.30;11.25;;;17.00;77.80;;;;;;4958067;28;20035;-85
2021/09/12 05:31:28;;;;;;;13.65;10.45;;;17.10;77.60;;;;;;4975941;28;20098;-85
2021/09/12 05:33:53;;;;;;;13.88;10.15;;;17.30;77.20;;;;;;4986583;28;20051;-84
2021/09/12 05:36:19;;;;;;;13.57;9.63;;;17.40;76.90;;;;;;5009133;28;20127;-86
2021/09/12 05:38:45;;;;;;;13.60;9.77;;;17.50;76.50;;;;;;5001159;28;20061;-84
2021/09/12 05:41:11;;;;;;;14.25;9.43;;;17.70;76.30;;;;;;5017430;28;20085;-83
2021/09/12 05:43:36;;;;;;;12.60;9.55;;;17.80;75.90;;;;;;5017170;28;20030;-84
2021/09/12 05:46:02;;;;;;;12.52;9.00;;;17.90;75.60;;;;;;5013142;28;20034;-84
2021/09/12 05:48:27;;;;;;;10.88;8.50;;;18.00;75.20;;;;;;5015955;28;20066;-85
2021/09/12 05:50:53;;;;;;;12.45;8.25;;;18.20;74.90;;;;;;5000441;28;20042;-85
2021/09/12 05:53:20;;;;;;;12.88;9.75;;;18.30;74.60;;;;;;5000227;28;20018;-83
2021/09/12 05:55:47;;;;;;;11.07;8.25;;;18.40;74.20;;;;;;4988768;28;20383;-86
2021/09/12 05:58:13;;;;;;;11.93;9.10;;;18.60;73.90;;;;;;4994990;28;20436;-85
2021/09/12 06:00:40;;;;;;;11.55;9.00;;;18.80;73.60;;;;;;4977730;28;20124;-86
2021/09/12 06:03:06;;;;;;;14.68;9.02;;;18.90;73.20;;;;;;4993910;28;20045;-85
2021/09/12 06:05:33;;;;;;;11.02;8.18;;;19.10;72.90;;;;;;4993948;28;20034;-85
2021/09/12 06:07:58;;;;;;;11.85;8.90;;;19.20;72.60;;;;;;4998360;28;20039;-83
2021/09/12 06:10:24;;;;;;;10.95;8.48;;;19.30;72.30;;;;;;4996332;28;20041;-85
2021/09/12 06:12:50;;;;;;;12.38;7.97;;;19.50;72.10;;;;;;4977648;28;20037;-86
2021/09/12 06:15:16;;;;;;;12.32;8.20;;;19.60;71.70;;;;;;4994027;28;20505;-85
2021/09/12 06:17:41;;;;;;;12.48;8.50;;;19.80;71.30;;;;;;4993549;28;20042;-85
2021/09/12 06:20:09;;;;;;;11.63;8.27;;;20.00;70.80;;;;;;4993941;28;20026;-86
2021/09/12 06:22:45;;;;;;;11.43;7.80;;;20.10;70.60;;;;;;4993407;28;20045;-85
2021/09/12 06:25:11;;;;;;;11.05;7.68;;;20.30;70.40;;;;;;4974899;28;20491;-83
2021/09/12 06:27:38;;;;;;;10.82;7.90;;;20.50;69.90;;;;;;4976722;28;20381;-84
2021/09/12 06:30:06;;;;;;;9.88;7.55;;;20.60;69.50;;;;;;4993743;28;20110;-83
2021/09/12 06:32:31;;;;;;;10.63;7.80;;;20.80;69.00;;;;;;4976241;28;20035;-84
2021/09/12 06:34:57;;;;;;;10.68;8.43;;;21.00;68.60;;;;;;4993468;28;20491;-83
2021/09/12 06:37:23;;;;;;;14.55;9.85;;;21.20;68.90;;;;;;4978214;28;20054;-83
2021/09/12 06:39:52;;;;;;;13.93;9.38;;;21.30;67.70;;;;;;4976185;28;20058;-84
2021/09/12 06:42:18;;;;;;;15.05;9.45;;;21.50;67.30;;;;;;4976104;28;20041;-85
2021/09/12 06:44:44;;;;;;;15.68;10.82;;;21.70;66.90;;;;;;4992829;28;20038;-85
2021/09/12 06:47:10;;;;;;;17.23;9.90;;;21.80;66.40;;;;;;4992808;28;20105;-84
2021/09/12 06:49:35;;;;;;;16.75;11.00;;;21.90;66.70;;;;;;4995829;28;20429;-85
2021/09/12 06:52:01;;;;;;;16.35;10.07;;;22.00;65.60;;;;;;4995857;28;20041;-84
2021/09/12 06:54:27;;;;;;;19.13;12.10;;;22.20;65.50;;;;;;4997933;28;20061;-87
2021/09/12 06:56:53;;;;;;;56.15;32.03;;;22.30;65.10;;;;;;4997685;28;20054;-88
2021/09/12 06:59:19;;;;;;;22.70;16.17;;;22.50;64.70;;;;;;4980139;28;20130;-85
2021/09/12 07:01:45;;;;;;;20.73;14.48;;;22.70;64.20;;;;;;4980035;28;20480;-89
2021/09/12 07:04:11;;;;;;;15.70;12.02;;;22.90;63.80;;;;;;4980395;28;20038;-92
2021/09/12 07:06:36;;;;;;;18.50;12.48;;;23.00;63.40;;;;;;4964179;28;20547;-92
2021/09/12 07:09:03;;;;;;;20.42;12.60;;;23.20;62.70;;;;;;4996536;28;20125;-89
2021/09/12 07:11:29;;;;;;;17.88;12.40;;;23.30;62.30;;;;;;4980351;28;20041;-92
2021/09/12 07:13:54;;;;;;;15.25;10.77;;;23.30;62.00;;;;;;4982529;28;20038;-93
2021/09/12 07:16:21;;;;;;;16.67;11.35;;;23.50;62.10;;;;;;4997473;28;20035;-93
2021/09/12 07:18:47;;;;;;;16.58;11.57;;;23.60;61.60;;;;;;4965091;28;20043;-94
2021/09/12 07:21:12;;;;;;;14.77;10.35;;;23.80;61.20;;;;;;4980582;28;20046;-92
2021/09/12 07:23:38;;;;;;;15.82;10.80;;;23.90;60.70;;;;;;4980833;28;20034;-90
2021/09/12 07:26:06;;;;;;;15.77;10.73;;;24.10;60.60;;;;;;4980387;28;20050;-88
2021/09/12 07:28:33;;;;;;;13.15;10.13;;;24.30;60.40;;;;;;4980431;28;20042;-89
2021/09/12 07:30:58;;;;;;;14.45;10.68;;;24.60;60.70;;;;;;4997426;28;20158;-88
2021/09/12 07:33:24;;;;;;;12.88;9.43;;;24.90;61.30;;;;;;4981256;28;20070;-86
2021/09/12 07:35:50;;;;;;;15.02;10.60;;;25.40;62.00;;;;;;4998283;28;20054;-88
2021/09/12 07:38:15;;;;;;;18.23;12.85;;;25.80;61.60;;;;;;4997307;28;20129;-89
2021/09/12 07:40:41;;;;;;;17.25;12.98;;;26.20;61.50;;;;;;4998623;28;20030;-88
2021/09/12 07:43:07;;;;;;;16.95;11.32;;;26.60;60.60;;;;;;4980077;28;20030;-88
2021/09/12 07:45:33;;;;;;;14.93;10.20;;;27.10;60.00;;;;;;4996617;28;20038;-87
2021/09/12 07:48:00;;;;;;;12.57;9.60;;;27.50;59.60;;;;;;4995998;28;20100;-88
2021/09/12 07:50:25;;;;;;;12.02;9.55;;;28.00;59.20;;;;;;4994077;28;20121;-85
2021/09/12 07:52:51;;;;;;;11.98;9.27;;;28.50;58.40;;;;;;4992495;28;20125;-86
2021/09/12 07:55:18;;;;;;;12.27;8.73;;;28.90;57.10;;;;;;4992928;28;20484;-85
2021/09/12 07:57:44;;;;;;;10.60;8.85;;;29.30;56.50;;;;;;4975921;28;20142;-85
2021/09/12 08:00:10;;;;;;;10.73;8.82;;;29.70;56.00;;;;;;4993285;28;20465;-86
2021/09/12 08:02:36;;;;;;;9.48;8.32;;;30.10;54.90;;;;;;4993100;28;20026;-87
2021/09/12 08:05:02;;;;;;;10.32;8.25;;;30.50;54.10;;;;;;4991912;28;20061;-85
2021/09/12 08:07:28;;;;;;;9.93;8.32;;;30.90;53.10;;;;;;4975802;28;20077;-85
2021/09/12 08:09:54;;;;;;;9.20;8.00;;;31.30;51.80;;;;;;4993209;28;20074;-85
2021/09/12 08:12:19;;;;;;;10.85;7.93;;;31.60;51.10;;;;;;4992241;28;20522;-85
2021/09/12 08:14:45;;;;;;;9.10;7.30;;;32.00;49.90;;;;;;4993480;28;20026;-88
2021/09/12 08:17:12;;;;;;;10.23;7.88;;;32.30;49.30;;;;;;4961058;28;20050;-85
2021/09/12 08:19:38;;;;;;;9.20;7.32;;;32.60;48.10;;;;;;4994951;28;20137;-86
2021/09/12 08:22:03;;;;;;;9.18;7.07;;;32.90;47.20;;;;;;4995747;28;20077;-88
2021/09/12 08:24:29;;;;;;;8.32;7.32;;;33.20;47.00;;;;;;4978526;28;20034;-89
2021/09/12 08:26:55;;;;;;;8.45;6.60;;;33.50;45.90;;;;;;4996558;28;20161;-91
2021/09/12 08:29:21;;;;;;;9.45;6.65;;;33.80;45.40;;;;;;4978582;28;20042;-91
2021/09/12 08:31:46;;;;;;;8.70;6.43;;;34.00;44.70;;;;;;4995983;28;20077;-91
2021/09/12 08:37:34;;;;;;;9.38;6.80;;;34.40;39.10;;;;;;4994771;28;20084;-91
2021/09/12 08:40:01;;;;;;;8.38;6.85;;;34.40;43.10;;;;;;4996130;28;20464;-91
2021/09/12 08:42:27;;;;;;;7.65;6.45;;;34.60;41.70;;;;;;4994816;28;20041;-88
2021/09/12 08:44:55;;;;;;;9.15;6.50;;;34.80;41.50;;;;;;4994715;28;20385;-85
2021/09/12 08:47:23;;;;;;;6.93;6.18;;;34.90;41.10;;;;;;4997509;28;20042;-84
2021/09/12 08:49:48;;;;;;;8.05;5.95;;;35.10;40.90;;;;;;4995318;28;20042;-87
2021/09/12 08:52:14;;;;;;;7.60;6.10;;;35.40;40.60;;;;;;4995371;28;20026;-85
2021/09/12 08:54:41;;;;;;;7.32;5.80;;;35.60;40.00;;;;;;4995353;28;20041;-85
2021/09/12 08:57:07;;;;;;;6.70;5.88;;;35.90;39.60;;;;;;4978473;28;20038;-85
2021/09/12 08:59:35;;;;;;;7.78;5.80;;;36.00;38.80;;;;;;4996887;28;20058;-85
2021/09/12 09:02:05;;;;;;;6.20;5.43;;;36.10;38.20;;;;;;4996234;28;20026;-86
2021/09/12 09:04:33;;;;;;;7.10;5.40;;;36.20;37.40;;;;;;4978759;28;20058;-86
2021/09/12 09:07:07;;;;;;;6.43;5.35;;;36.20;37.30;;;;;;4977806;28;20373;-85
2021/09/12 09:09:45;;;;;;;7.22;5.95;;;36.30;34.50;;;;;;4994977;28;20413;-85
2021/09/12 09:12:29;;;;;;;10.75;6.82;;;36.40;34.30;;;;;;4994685;28;20049;-86
2021/09/12 09:15:12;;;;;;;7.63;5.75;;;36.60;33.20;;;;;;4994737;28;20539;-87
2021/09/12 09:17:51;;;;;;;6.03;5.07;;;36.70;34.20;;;;;;4976570;28;20133;-89
2021/09/12 09:20:31;;;;;;;9.27;5.40;;;36.80;35.80;;;;;;4975556;28;20026;-88
2021/09/12 09:22:58;;;;;;;7.07;5.15;;;37.10;33.00;;;;;;4993211;28;20030;-88
2021/09/12 09:25:26;;;;;;;5.68;4.75;;;37.30;35.10;;;;;;4975997;28;20035;-87
2021/09/12 09:28:04;;;;;;;6.20;4.50;;;37.50;34.70;;;;;;4994246;28;20122;-87
2021/09/12 09:30:34;;;;;;;4.80;4.10;;;37.80;34.40;;;;;;4974019;28;20049;-85
2021/09/12 09:33:14;;;;;;;6.05;4.25;;;37.90;33.70;;;;;;4993228;28;20026;-85
2021/09/12 09:35:49;;;;;;;7.97;7.18;;;38.20;31.40;;;;;;4994409;28;20092;-90
2021/09/12 09:38:15;;;;;;;52.10;46.85;;;38.30;31.70;;;;;;4992898;28;20054;-93
2021/09/12 09:41:07;;;;;;;21.77;19.38;;;38.30;32.80;;;;;;5004593;28;20034;-91
2021/09/12 09:43:45;;;;;;;10.90;9.80;;;38.40;30.70;;;;;;5002066;28;20035;-90
2021/09/12 09:46:40;;;;;;;8.38;6.85;;;38.30;32.20;;;;;;5000668;28;20512;-90
2021/09/12 09:49:25;;;;;;;8.15;5.90;;;38.30;29.70;;;;;;5003477;28;20046;-87
2021/09/12 09:51:58;;;;;;;7.60;5.72;;;38.20;29.50;;;;;;4988975;28;20045;-89
2021/09/12 09:54:27;;;;;;;8.55;6.20;;;38.30;32.10;;;;;;5005377;28;20057;-89
2021/09/12 09:56:56;;;;;;;8.27;5.38;;;38.40;32.10;;;;;;5001998;28;20050;-92
2021/09/12 09:59:23;;;;;;;5.28;4.78;;;38.40;31.90;;;;;;4977273;28;20038;-92
2021/09/12 10:01:51;;;;;;;8.57;4.75;;;38.50;31.60;;;;;;4976366;28;20042;-93
2021/09/12 10:04:23;;;;;;;6.07;4.88;;;38.40;31.50;;;;;;4990122;28;20045;-93
2021/09/12 10:06:49;;;;;;;5.28;4.60;;;38.40;31.30;;;;;;4993814;28;20053;-92
2021/09/12 10:09:17;;;;;;;5.78;4.63;;;38.40;31.70;;;;;;4993529;28;20045;-91
2021/09/12 10:11:54;;;;;;;5.63;5.07;;;38.50;31.50;;;;;;4993654;28;20028;-88
2021/09/12 10:14:34;;;;;;;5.78;4.43;;;38.70;31.30;;;;;;4991971;28;20053;-89
2021/09/12 10:17:01;;;;;;;5.95;4.57;;;38.80;29.50;;;;;;4986824;28;20194;-89
2021/09/12 10:19:35;;;;;;;6.25;4.50;;;38.80;31.00;;;;;;4976442;28;20026;-89
2021/09/12 10:22:10;;;;;;;5.28;4.57;;;38.90;30.40;;;;;;4976795;28;20041;-91
2021/09/12 10:25:15;;;;;;;5.82;4.50;;;39.00;29.70;;;;;;4997604;28;20049;-90
2021/09/12 10:27:42;;;;;;;6.90;4.38;;;39.00;28.80;;;;;;4977279;28;20125;-88
2021/09/12 10:30:28;;;;;;;4.90;4.15;;;38.90;30.60;;;;;;4981273;28;20481;-91
2021/09/12 10:33:26;;;;;;;5.32;4.40;;;39.20;29.40;;;;;;4995570;28;20022;-90
2021/09/12 10:35:58;;;;;;;10.63;6.90;;;39.30;29.60;;;;;;4988737;28;20042;-91
2021/09/12 10:38:32;;;;;;;5.60;4.68;;;39.40;31.10;;;;;;4942511;28;20301;-89
2021/09/12 10:41:01;;;;;;;5.18;4.50;;;39.50;30.00;;;;;;4967365;28;20042;-95
2021/09/12 10:43:30;;;;;;;4.63;4.00;;;39.70;29.80;;;;;;4977813;28;20054;-91
2021/09/12 10:46:02;;;;;;;5.22;4.25;;;39.80;29.60;;;;;;4977253;28;20083;-92
2021/09/12 10:48:33;;;;;;;5.28;4.43;;;39.70;29.00;;;;;;4978768;28;20034;-92
2021/09/12 10:51:04;;;;;;;6.25;4.20;;;39.70;29.50;;;;;;4981476;28;20117;-92
2021/09/12 10:53:55;;;;;;;5.93;4.47;;;39.80;29.00;;;;;;4986911;28;20482;-88
2021/09/12 10:56:20;;;;;;;5.53;3.90;;;39.90;28.10;;;;;;4973010;28;20047;-93
2021/09/12 10:58:54;;;;;;;5.35;4.43;;;39.80;29.20;;;;;;4972895;28;20093;-90
2021/09/12 11:01:49;;;;;;;8.20;4.50;;;39.80;28.50;;;;;;4981438;28;20035;-91
2021/09/12 11:04:16;;;;;;;5.25;4.38;;;39.70;27.40;;;;;;4969896;28;20050;-92
2021/09/12 11:06:52;;;;;;;5.32;4.30;;;39.70;28.70;;;;;;4996252;28;20062;-90
2021/09/12 11:09:23;;;;;;;4.93;4.15;;;39.80;29.10;;;;;;4992345;28;20015;-89
2021/09/12 11:11:57;;;;;;;6.75;4.50;;;40.00;28.60;;;;;;4993354;28;20100;-89
2021/09/12 11:14:24;;;;;;;4.88;4.38;;;40.10;28.50;;;;;;4986541;28;20031;-92
2021/09/12 11:16:50;;;;;;;6.22;5.10;;;40.10;28.30;;;;;;4986469;28;20390;-87
2021/09/12 11:19:16;;;;;;;5.50;4.75;;;40.00;28.40;;;;;;4980992;28;20045;-87
2021/09/12 11:21:51;;;;;;;6.85;5.20;;;40.10;28.90;;;;;;4980476;28;20382;-88
2021/09/12 11:24:30;;;;;;;7.68;5.82;;;40.20;28.00;;;;;;4959598;28;20047;-87
2021/09/12 11:26:58;;;;;;;7.15;4.80;;;40.20;27.90;;;;;;4975739;28;20069;-84
2021/09/12 11:29:39;;;;;;;7.43;4.63;;;40.30;28.40;;;;;;4975266;28;20037;-86
2021/09/12 11:32:17;;;;;;;6.22;4.80;;;40.40;28.40;;;;;;4959168;28;20089;-85
2021/09/12 11:34:50;;;;;;;6.43;4.90;;;40.50;28.40;;;;;;4975788;28;20035;-86
2021/09/12 11:37:18;;;;;;;5.97;4.80;;;40.70;28.30;;;;;;4982571;28;20250;-86
2021/09/12 11:39:47;;;;;;;;;;;40.80;28.10;;;;;;5011417;28;20034;-86
2021/09/12 11:42:17;;;;;;;6.25;5.40;;;40.50;27.40;;;;;;4976021;28;19913;-86
2021/09/12 11:44:48;;;;;;;5.25;4.22;;;40.70;28.30;;;;;;4992734;28;20057;-86
2021/09/12 11:47:19;;;;;;;6.38;4.80;;;41.00;27.80;;;;;;4975637;28;20400;-85
2021/09/12 11:49:57;;;;;;;6.05;4.80;;;40.70;27.40;;;;;;4993033;28;20046;-85
2021/09/12 11:52:37;;;;;;;5.07;4.57;;;40.50;27.50;;;;;;4993507;28;20038;-85
2021/09/12 11:55:17;;;;;;;5.45;4.95;;;40.40;26.90;;;;;;4991966;28;20034;-85
2021/09/12 11:57:44;;;;;;;6.22;4.60;;;40.20;27.30;;;;;;4996550;28;20070;-84
2021/09/12 12:00:10;;;;;;;7.28;4.97;;;40.20;28.10;;;;;;4978968;28;20034;-85
2021/09/12 12:02:37;;;;;;;7.30;5.47;;;40.20;28.10;;;;;;4978848;28;20046;-85
2021/09/12 12:05:04;;;;;;;6.03;5.38;;;40.40;28.20;;;;;;5011272;28;20050;-85
2021/09/12 12:07:38;;;;;;;6.30;4.82;;;40.40;28.10;;;;;;4996415;28;20478;-85
2021/09/12 12:10:05;;;;;;;5.15;4.65;;;40.30;27.90;;;;;;4994964;28;20035;-85
2021/09/12 12:12:38;;;;;;;7.15;4.40;;;40.10;28.10;;;;;;4996322;28;20034;-85
2021/09/12 12:15:06;;;;;;;6.55;4.75;;;40.20;28.00;;;;;;5011206;28;20113;-85
2021/09/12 12:17:33;;;;;;;5.53;4.75;;;40.20;28.10;;;;;;4995951;28;20125;-86
2021/09/12 12:19:59;;;;;;;6.45;4.80;;;40.40;28.00;;;;;;4978506;28;20473;-85
2021/09/12 12:22:35;;;;;;;5.63;4.88;;;40.60;28.00;;;;;;4995850;28;20435;-84
2021/09/12 12:25:02;;;;;;;6.78;5.43;;;40.80;27.40;;;;;;4996478;28;20536;-85
2021/09/12 12:27:27;;;;;;;5.20;4.57;;;40.80;28.30;;;;;;4995665;28;20034;-85
2021/09/12 12:30:00;;;;;;;6.70;5.30;;;41.00;27.60;;;;;;4978287;28;20084;-85
2021/09/12 12:32:28;;;;;;;5.88;4.72;;;41.10;27.40;;;;;;4995520;28;20034;-86
2021/09/12 12:34:56;;;;;;;5.20;4.68;;;41.20;27.30;;;;;;5010777;28;20038;-86
2021/09/12 12:37:43;;;;;;;6.43;4.88;;;41.30;27.30;;;;;;5001595;28;20058;-84
2021/09/12 12:40:23;;;;;;;5.65;5.03;;;41.10;27.10;;;;;;4975332;28;20122;-84
2021/09/12 12:42:51;;;;;;;6.55;5.55;;;41.00;27.20;;;;;;4975453;28;20132;-84